Time;durP1;ratioP1;P1;durP2;ratioP2;P2;SDS_P1;SDS_P2;PMS_P1;PMS_P2;Temp;Humidity;BMP_temperature;BMP_pressure;BME280_temperature;BME280_humidity;BME280_pressure;Samples;Min_cycle;Max_cycle;Signal;HPM_P1;HPM_P2
2023/10/23 00:02:18;;;;;;;23.23;14.17;;;11.90;99.90;;;;;;4960662;28;20198;-79
2023/10/23 00:04:48;;;;;;;21.87;13.73;;;12.10;99.90;;;;;;4975176;28;20181;-80
2023/10/23 00:07:18;;;;;;;20.20;13.27;;;12.00;99.90;;;;;;4975122;28;20206;-78
2023/10/23 00:09:56;;;;;;;23.03;13.90;;;12.10;99.90;;;;;;4943769;28;20618;-76
2023/10/23 00:12:31;;;;;;;20.10;13.30;;;12.10;99.90;;;;;;4976143;28;20220;-77
2023/10/23 00:15:02;;;;;;;19.23;12.00;;;12.20;99.90;;;;;;4975242;28;20214;-77
2023/10/23 00:17:35;;;;;;;20.47;12.43;;;12.10;99.90;;;;;;4975882;28;20251;-78
2023/10/23 00:20:08;;;;;;;20.27;13.10;;;12.20;99.90;;;;;;4957956;28;20320;-79
2023/10/23 00:22:42;;;;;;;19.53;12.17;;;12.10;99.90;;;;;;4974473;28;20568;-78
2023/10/23 00:25:17;;;;;;;20.83;13.03;;;12.20;99.90;;;;;;4959252;28;20200;-80
2023/10/23 00:27:45;;;;;;;23.53;12.50;;;12.10;99.90;;;;;;4941563;28;20198;-78
2023/10/23 00:30:15;;;;;;;22.83;12.93;;;12.00;99.90;;;;;;4975229;28;20647;-78
2023/10/23 00:32:54;;;;;;;18.87;12.43;;;11.90;99.90;;;;;;4957663;28;20284;-78
2023/10/23 00:35:39;;;;;;;19.40;12.07;;;12.10;99.90;;;;;;4975274;28;20174;-78
2023/10/23 00:38:23;;;;;;;21.40;12.77;;;12.00;99.90;;;;;;4959126;28;20232;-79
2023/10/23 00:40:54;;;;;;;20.20;12.87;;;11.90;99.90;;;;;;4975030;28;20197;-78
2023/10/23 00:43:24;;;;;;;19.07;12.83;;;12.00;99.90;;;;;;4975831;28;20201;-78
2023/10/23 00:46:01;;;;;;;20.33;13.00;;;11.90;99.90;;;;;;4974650;28;20599;-77
2023/10/23 00:48:36;;;;;;;21.00;13.40;;;12.00;99.90;;;;;;4975600;28;20213;-76
2023/10/23 00:51:09;;;;;;;23.67;13.17;;;12.00;99.90;;;;;;4974533;28;20264;-79
2023/10/23 00:53:47;;;;;;;23.57;13.57;;;12.10;99.90;;;;;;4975326;28;20193;-79
2023/10/23 00:56:23;;;;;;;20.27;13.53;;;12.00;99.90;;;;;;4974519;28;20221;-78
2023/10/23 00:58:55;;;;;;;22.40;14.00;;;12.10;99.90;;;;;;4973651;28;20200;-80
2023/10/23 01:01:31;;;;;;;23.50;14.63;;;12.00;99.90;;;;;;4973860;28;20277;-79
2023/10/23 01:04:32;;;;;;;22.17;14.40;;;12.00;99.90;;;;;;4957201;28;20216;-77
2023/10/23 01:07:03;;;;;;;23.47;14.50;;;12.10;99.90;;;;;;4957196;28;20712;-76
2023/10/23 01:09:48;;;;;;;26.67;15.03;;;12.00;99.90;;;;;;4957787;28;20712;-77
2023/10/23 01:12:30;;;;;;;24.77;15.40;;;12.00;99.90;;;;;;4974275;28;20208;-79
2023/10/23 01:15:09;;;;;;;26.17;15.90;;;12.10;99.90;;;;;;4957131;28;20193;-78
2023/10/23 01:18:07;;;;;;;27.97;15.83;;;12.10;99.90;;;;;;4974420;28;20623;-80
2023/10/23 01:20:45;;;;;;;27.47;16.17;;;12.10;99.90;;;;;;4876720;29;20689;-78
2023/10/23 01:23:16;;;;;;;28.67;17.13;;;12.10;99.90;;;;;;4877276;29;20288;-78
2023/10/23 01:25:49;;;;;;;29.97;16.70;;;12.20;99.90;;;;;;4875387;29;20209;-78
2023/10/23 01:28:25;;;;;;;30.33;17.10;;;12.10;99.90;;;;;;4875957;29;20219;-79
2023/10/23 01:31:01;;;;;;;30.43;17.87;;;12.10;99.90;;;;;;4876752;29;20665;-79
2023/10/23 01:33:34;;;;;;;35.90;17.70;;;12.10;99.90;;;;;;4861404;29;20227;-79
2023/10/23 01:36:06;;;;;;;31.37;17.47;;;12.00;99.90;;;;;;4876587;29;20714;-78
2023/10/23 01:38:36;;;;;;;31.43;17.23;;;12.00;99.90;;;;;;4876805;29;20229;-78
2023/10/23 01:41:39;;;;;;;;;;;;;;;;;;;;;
2023/10/23 01:44:11;;;;;;;29.83;15.90;;;12.20;99.90;;;;;;4876191;29;20236;-76
2023/10/23 01:46:42;;;;;;;25.93;15.37;;;12.00;99.90;;;;;;4876664;29;20201;-76
2023/10/23 01:49:11;;;;;;;24.37;13.77;;;12.00;99.90;;;;;;4874683;29;20713;-76
2023/10/23 01:51:43;;;;;;;23.53;13.77;;;12.00;99.90;;;;;;4874775;29;20209;-75
2023/10/23 01:54:16;;;;;;;21.20;12.70;;;12.00;99.90;;;;;;4875754;29;20193;-77
2023/10/23 01:56:43;;;;;;;17.83;12.43;;;12.00;99.90;;;;;;4885574;28;20232;-78
2023/10/23 01:59:15;;;;;;;22.47;11.93;;;12.00;99.90;;;;;;4972800;28;20280;-77
2023/10/23 02:01:47;;;;;;;18.00;11.60;;;11.90;99.90;;;;;;4973963;28;20222;-76
2023/10/23 02:04:17;;;;;;;15.53;10.90;;;11.90;99.90;;;;;;4955960;28;20213;-77
2023/10/23 02:07:00;;;;;;;17.97;11.20;;;12.00;99.90;;;;;;4973473;28;20201;-77
2023/10/23 02:09:33;;;;;;;16.13;10.90;;;11.90;99.90;;;;;;4971488;28;20209;-76
2023/10/23 02:12:15;;;;;;;15.97;10.47;;;11.80;99.90;;;;;;4972756;28;20645;-78
2023/10/23 02:14:52;;;;;;;14.50;9.57;;;11.70;99.90;;;;;;4971877;28;20293;-77
2023/10/23 02:17:22;;;;;;;15.40;10.93;;;11.60;99.90;;;;;;4972195;28;20225;-80
2023/10/23 02:20:08;;;;;;;14.87;9.87;;;11.60;99.90;;;;;;4955315;28;20608;-79
2023/10/23 02:22:40;;;;;;;16.70;10.77;;;11.50;99.90;;;;;;4972575;28;20197;-80
2023/10/23 02:25:08;;;;;;;16.83;10.33;;;11.50;99.90;;;;;;4972937;28;20194;-78
2023/10/23 02:27:39;;;;;;;14.77;10.37;;;11.40;99.90;;;;;;4972168;28;20574;-76
2023/10/23 02:30:09;;;;;;;17.40;10.93;;;11.40;99.90;;;;;;4955997;28;20645;-77
2023/10/23 02:32:36;;;;;;;17.47;10.67;;;11.40;99.90;;;;;;4972585;28;20212;-75
2023/10/23 02:35:04;;;;;;;19.70;11.87;;;11.40;99.90;;;;;;4972322;28;20648;-77
2023/10/23 02:37:34;;;;;;;22.83;12.90;;;11.30;99.90;;;;;;4970464;28;20267;-77
2023/10/23 02:40:08;;;;;;;19.07;12.70;;;11.30;99.90;;;;;;4972796;28;20691;-79
2023/10/23 02:42:39;;;;;;;19.73;13.30;;;11.40;99.90;;;;;;4956029;28;20653;-78
2023/10/23 02:45:16;;;;;;;22.77;13.03;;;11.40;99.90;;;;;;4971643;28;20277;-77
2023/10/23 02:47:43;;;;;;;24.07;13.80;;;11.40;99.90;;;;;;4972105;28;20209;-79
2023/10/23 02:50:14;;;;;;;21.20;13.93;;;11.40;99.90;;;;;;4973281;28;20264;-75
2023/10/23 02:52:46;;;;;;;22.30;14.63;;;11.30;99.90;;;;;;4973055;28;20202;-77
2023/10/23 02:55:18;;;;;;;25.67;14.63;;;11.40;99.90;;;;;;4971506;28;20194;-76
2023/10/23 02:57:48;;;;;;;24.00;14.93;;;11.40;99.90;;;;;;4954561;28;20332;-78
2023/10/23 03:00:37;;;;;;;21.97;13.80;;;11.40;99.90;;;;;;4971257;28;20201;-76
2023/10/23 03:03:05;;;;;;;21.47;14.03;;;11.50;99.90;;;;;;4972387;28;20305;-77
2023/10/23 03:05:43;;;;;;;23.43;14.17;;;11.30;99.90;;;;;;4971611;28;20208;-78
2023/10/23 03:08:14;;;;;;;19.77;13.50;;;11.40;99.90;;;;;;4970817;28;20201;-74
2023/10/23 03:10:45;;;;;;;22.97;13.53;;;11.30;99.90;;;;;;4954040;28;20378;-77
2023/10/23 03:13:31;;;;;;;29.83;14.73;;;11.40;99.90;;;;;;4972567;28;20544;-75
2023/10/23 03:16:03;;;;;;;25.67;14.10;;;11.40;99.90;;;;;;4970887;28;20221;-77
2023/10/23 03:18:31;;;;;;;22.63;14.47;;;11.50;99.90;;;;;;4971279;28;20768;-79
2023/10/23 03:21:00;;;;;;;25.87;14.90;;;11.50;99.90;;;;;;4972361;28;20234;-79
2023/10/23 03:23:31;;;;;;;27.37;15.13;;;11.50;99.90;;;;;;4974741;28;20193;-78
2023/10/23 03:26:01;;;;;;;23.33;14.73;;;11.50;99.90;;;;;;4975013;28;20252;-78
2023/10/23 03:28:31;;;;;;;24.40;14.57;;;11.40;99.90;;;;;;4976063;28;20529;-78
2023/10/23 03:31:03;;;;;;;24.33;15.13;;;11.50;99.90;;;;;;4976535;28;20228;-77
2023/10/23 03:33:33;;;;;;;23.73;15.30;;;11.50;99.90;;;;;;4975851;28;20229;-77
2023/10/23 03:36:01;;;;;;;26.53;15.50;;;11.40;99.90;;;;;;4976696;28;20194;-76
2023/10/23 03:38:35;;;;;;;25.20;14.60;;;11.50;99.90;;;;;;4958239;28;20201;-77
2023/10/23 03:41:06;;;;;;;24.83;14.70;;;11.50;99.90;;;;;;4957978;28;20224;-78
2023/10/23 03:43:37;;;;;;;28.40;16.20;;;11.50;99.90;;;;;;4915930;29;20319;-78
2023/10/23 03:46:08;;;;;;;28.97;16.10;;;11.40;99.90;;;;;;4915331;29;20276;-79
2023/10/23 03:48:43;;;;;;;31.33;16.37;;;11.40;99.90;;;;;;4916076;29;20305;-80
2023/10/23 03:51:12;;;;;;;29.70;16.63;;;11.40;99.90;;;;;;4915149;29;20217;-76
2023/10/23 03:53:44;;;;;;;28.93;16.17;;;11.40;99.90;;;;;;4915315;29;20200;-78
2023/10/23 03:56:13;;;;;;;29.80;17.47;;;11.30;99.90;;;;;;4898567;29;20270;-78
2023/10/23 03:58:49;;;;;;;28.10;16.93;;;11.30;99.90;;;;;;4914543;29;20256;-78
2023/10/23 04:01:17;;;;;;;28.60;16.93;;;11.40;99.90;;;;;;4934994;28;20250;-77
2023/10/23 04:03:47;;;;;;;29.87;17.20;;;11.40;99.90;;;;;;4975132;28;20210;-76
2023/10/23 04:06:15;;;;;;;32.13;17.77;;;11.40;99.90;;;;;;4974908;28;20200;-76
2023/10/23 04:08:43;;;;;;;28.30;16.37;;;11.40;99.90;;;;;;4975177;28;20209;-77
2023/10/23 04:11:15;;;;;;;28.93;16.83;;;11.40;99.90;;;;;;4975065;28;20641;-77
2023/10/23 04:13:43;;;;;;;25.70;16.00;;;11.40;99.90;;;;;;4974216;28;20227;-77
2023/10/23 04:16:15;;;;;;;30.87;16.27;;;11.40;99.90;;;;;;4973591;28;20200;-77
2023/10/23 04:18:48;;;;;;;27.20;16.27;;;11.40;99.90;;;;;;4974471;28;20677;-76
2023/10/23 04:21:17;;;;;;;29.53;16.20;;;11.40;99.90;;;;;;4974563;28;20221;-77
2023/10/23 04:23:53;;;;;;;28.30;16.20;;;11.30;99.90;;;;;;4975344;28;20704;-77
2023/10/23 04:26:24;;;;;;;25.77;15.80;;;11.30;99.90;;;;;;4974309;28;20185;-77
2023/10/23 04:28:51;;;;;;;27.57;15.77;;;11.40;99.90;;;;;;4956830;28;20233;-77
2023/10/23 04:31:25;;;;;;;29.67;16.40;;;11.40;99.90;;;;;;4974674;28;20280;-78
2023/10/23 04:33:59;;;;;;;30.13;16.67;;;11.40;99.90;;;;;;4972913;28;20259;-77
2023/10/23 04:36:34;;;;;;;29.57;16.10;;;11.40;99.90;;;;;;4974874;28;20656;-79
2023/10/23 04:39:07;;;;;;;27.03;16.20;;;11.50;99.90;;;;;;4974872;28;20193;-78
2023/10/23 04:41:39;;;;;;;30.17;16.27;;;11.50;99.90;;;;;;4975189;28;20193;-78
2023/10/23 04:44:12;;;;;;;28.97;15.53;;;11.40;99.90;;;;;;4974484;28;20213;-77
2023/10/23 04:46:40;;;;;;;26.83;15.13;;;11.40;99.90;;;;;;4974896;28;20190;-79
2023/10/23 04:49:16;;;;;;;29.30;15.83;;;11.50;99.90;;;;;;4973952;28;20684;-80
2023/10/23 04:51:48;;;;;;;27.97;15.73;;;11.40;99.90;;;;;;4974946;28;20201;-76
2023/10/23 04:54:16;;;;;;;28.20;16.50;;;11.30;99.90;;;;;;4974097;28;20221;-78
2023/10/23 04:56:44;;;;;;;27.33;15.40;;;11.40;99.90;;;;;;4941025;28;20600;-76
2023/10/23 04:59:11;;;;;;;29.50;15.83;;;11.40;99.90;;;;;;4973640;28;20205;-77
2023/10/23 05:01:42;;;;;;;28.57;16.23;;;11.40;99.90;;;;;;4973656;28;20225;-77
2023/10/23 05:04:13;;;;;;;28.77;15.63;;;11.40;99.90;;;;;;4956612;28;20222;-76
2023/10/23 05:06:42;;;;;;;28.37;16.50;;;11.50;99.90;;;;;;4973803;28;20280;-77
2023/10/23 05:09:10;;;;;;;32.33;15.93;;;11.40;99.90;;;;;;4973710;28;20557;-77
2023/10/23 05:11:41;;;;;;;25.63;15.10;;;11.40;99.90;;;;;;4971610;28;20644;-78
2023/10/23 05:14:22;;;;;;;26.80;15.60;;;11.40;99.90;;;;;;4971043;28;20664;-77
2023/10/23 05:16:50;;;;;;;31.23;15.57;;;11.40;99.90;;;;;;4974420;28;20229;-77
2023/10/23 05:19:17;;;;;;;31.17;15.80;;;11.50;99.90;;;;;;4971199;28;20626;-77
2023/10/23 05:21:45;;;;;;;30.33;16.23;;;11.50;99.90;;;;;;4973643;28;20614;-75
2023/10/23 05:24:13;;;;;;;32.10;16.03;;;11.50;99.90;;;;;;4973136;28;20211;-76
2023/10/23 05:26:47;;;;;;;29.27;16.33;;;11.50;99.90;;;;;;4957661;28;20353;-77
2023/10/23 05:29:17;;;;;;;26.87;15.73;;;11.70;99.90;;;;;;4975060;28;20200;-75
2023/10/23 05:31:47;;;;;;;29.83;15.70;;;11.60;99.90;;;;;;4974611;28;20205;-74
2023/10/23 05:34:16;;;;;;;30.27;17.10;;;11.70;99.90;;;;;;4971669;28;20657;-78
2023/10/23 05:36:47;;;;;;;28.63;16.27;;;11.60;99.90;;;;;;4973103;28;20225;-77
2023/10/23 05:39:15;;;;;;;28.83;16.67;;;11.50;99.90;;;;;;4972919;28;20190;-77
2023/10/23 05:41:43;;;;;;;33.27;16.83;;;11.50;99.90;;;;;;4972384;28;20248;-76
2023/10/23 05:44:20;;;;;;;32.67;17.37;;;11.50;99.90;;;;;;4972025;28;20221;-77
2023/10/23 05:46:49;;;;;;;29.77;17.03;;;11.50;99.90;;;;;;4940119;28;20630;-77
2023/10/23 05:49:17;;;;;;;31.80;16.90;;;11.50;99.90;;;;;;4955519;28;20291;-77
2023/10/23 05:51:47;;;;;;;33.10;17.27;;;11.50;99.90;;;;;;4973476;28;20189;-78
2023/10/23 05:54:21;;;;;;;33.20;18.03;;;11.60;99.90;;;;;;4972603;28;20699;-79
2023/10/23 05:56:49;;;;;;;33.63;17.90;;;11.70;99.90;;;;;;4955249;28;20250;-77
2023/10/23 05:59:20;;;;;;;34.57;18.37;;;11.60;99.90;;;;;;4972437;28;20247;-78
2023/10/23 06:01:52;;;;;;;35.60;18.53;;;11.60;99.90;;;;;;4955605;28;20249;-78
2023/10/23 06:04:20;;;;;;;34.67;19.20;;;11.60;99.90;;;;;;4971996;28;20587;-76
2023/10/23 06:06:53;;;;;;;35.53;17.97;;;11.60;99.90;;;;;;4971186;28;20201;-77
2023/10/23 06:09:22;;;;;;;36.27;19.33;;;11.60;99.90;;;;;;4972985;28;20178;-77
2023/10/23 06:11:53;;;;;;;34.00;18.40;;;11.60;99.90;;;;;;4972553;28;20210;-76
2023/10/23 06:14:21;;;;;;;37.87;19.40;;;11.60;99.90;;;;;;4973063;28;20279;-77
2023/10/23 06:16:52;;;;;;;34.30;19.57;;;11.70;99.90;;;;;;4972551;28;20200;-77
2023/10/23 06:19:21;;;;;;;35.67;19.97;;;11.70;99.90;;;;;;4972843;28;20213;-78
2023/10/23 06:21:49;;;;;;;35.70;19.30;;;11.80;99.90;;;;;;4972234;28;20208;-77
2023/10/23 06:24:17;;;;;;;34.07;19.10;;;11.70;99.90;;;;;;4972492;28;20201;-76
2023/10/23 06:26:48;;;;;;;35.03;19.37;;;11.70;99.90;;;;;;4972432;28;20535;-76
2023/10/23 06:29:18;;;;;;;37.40;20.40;;;11.60;99.90;;;;;;4973026;28;20270;-76
2023/10/23 06:31:48;;;;;;;34.87;19.77;;;11.70;99.90;;;;;;4973343;28;20207;-76
2023/10/23 06:34:18;;;;;;;32.93;18.47;;;11.80;99.90;;;;;;4973620;28;20209;-77
2023/10/23 06:36:46;;;;;;;37.13;19.80;;;11.80;99.90;;;;;;4973549;28;20204;-77
2023/10/23 06:39:16;;;;;;;36.70;18.73;;;11.80;99.90;;;;;;4973004;28;20320;-77
2023/10/23 06:41:54;;;;;;;35.80;19.40;;;11.70;99.90;;;;;;4973783;28;20197;-77
2023/10/23 06:44:26;;;;;;;36.73;18.40;;;11.80;99.90;;;;;;4972761;28;20276;-76
2023/10/23 06:46:59;;;;;;;30.37;18.23;;;11.80;99.90;;;;;;4973174;28;20189;-76
2023/10/23 06:49:27;;;;;;;33.40;18.07;;;11.90;99.90;;;;;;4972553;28;20216;-75
2023/10/23 06:51:55;;;;;;;30.70;17.83;;;11.90;99.90;;;;;;4971674;28;20631;-74
2023/10/23 06:54:24;;;;;;;33.73;18.80;;;11.90;99.90;;;;;;4972093;28;20197;-77
2023/10/23 06:56:55;;;;;;;33.80;18.67;;;11.90;99.90;;;;;;4973367;28;20688;-77
2023/10/23 06:59:22;;;;;;;32.50;18.77;;;11.80;99.90;;;;;;4976389;28;20648;-76
2023/10/23 07:01:52;;;;;;;36.70;18.00;;;11.90;99.90;;;;;;4975148;28;20252;-76
2023/10/23 07:04:25;;;;;;;32.77;18.70;;;11.90;99.90;;;;;;4959167;28;20224;-78
2023/10/23 07:06:53;;;;;;;29.03;16.97;;;11.90;99.90;;;;;;4959201;28;20202;-76
2023/10/23 07:09:21;;;;;;;29.03;16.83;;;11.90;99.90;;;;;;4974525;28;20244;-77
2023/10/23 07:11:50;;;;;;;27.77;16.30;;;11.90;99.90;;;;;;4975322;28;20357;-75
2023/10/23 07:14:18;;;;;;;29.67;16.17;;;11.90;99.90;;;;;;4975554;28;20657;-75
2023/10/23 07:16:46;;;;;;;29.90;15.97;;;11.90;99.90;;;;;;4974965;28;20200;-76
2023/10/23 07:19:14;;;;;;;27.73;15.77;;;11.90;99.90;;;;;;4976384;28;20229;-76
2023/10/23 07:21:42;;;;;;;27.13;15.53;;;11.90;99.90;;;;;;4974189;28;20242;-76
2023/10/23 07:24:09;;;;;;;27.93;16.20;;;12.00;99.90;;;;;;4976208;28;20205;-73
2023/10/23 07:26:38;;;;;;;26.50;15.70;;;11.90;99.90;;;;;;4975653;28;20207;-74
2023/10/23 07:29:05;;;;;;;27.97;15.33;;;11.80;99.90;;;;;;4974992;28;20205;-75
2023/10/23 07:31:35;;;;;;;28.50;16.67;;;12.00;99.90;;;;;;4974527;28;20268;-75
2023/10/23 07:34:03;;;;;;;28.13;15.90;;;12.00;99.90;;;;;;4976003;28;20222;-74
2023/10/23 07:36:31;;;;;;;27.90;16.37;;;12.00;99.90;;;;;;4974723;28;20194;-75
2023/10/23 07:38:59;;;;;;;26.33;15.87;;;11.90;99.90;;;;;;4974146;28;20225;-73
2023/10/23 07:41:26;;;;;;;32.23;17.53;;;12.10;99.90;;;;;;4958216;28;20198;-76
2023/10/23 07:43:53;;;;;;;30.37;16.80;;;12.00;99.90;;;;;;4974212;28;20601;-75
2023/10/23 07:46:22;;;;;;;25.67;15.40;;;12.00;99.90;;;;;;4974032;28;20206;-77
2023/10/23 07:48:49;;;;;;;43.40;19.10;;;12.00;99.90;;;;;;4957565;28;20214;-75
2023/10/23 07:51:17;;;;;;;32.90;18.30;;;12.10;99.90;;;;;;4975049;28;20654;-76
2023/10/23 07:53:50;;;;;;;32.57;17.03;;;12.20;99.90;;;;;;4974418;28;20679;-78
2023/10/23 07:56:17;;;;;;;29.03;17.40;;;12.20;99.90;;;;;;4975067;28;20232;-75
2023/10/23 07:58:58;;;;;;;32.93;17.93;;;12.30;99.90;;;;;;4973921;28;20229;-77
2023/10/23 08:01:30;;;;;;;38.47;18.23;;;12.30;99.90;;;;;;4958157;28;20216;-76
2023/10/23 08:04:17;;;;;;;37.90;18.57;;;12.40;99.90;;;;;;4974070;28;20217;-75
2023/10/23 08:06:50;;;;;;;31.70;18.00;;;12.60;99.90;;;;;;4973641;28;20268;-76
2023/10/23 08:09:18;;;;;;;29.83;17.67;;;12.60;99.90;;;;;;4955398;28;20417;-76
2023/10/23 08:11:53;;;;;;;33.23;18.07;;;12.70;99.90;;;;;;4972696;28;20208;-77
2023/10/23 08:14:21;;;;;;;29.30;16.53;;;12.70;99.90;;;;;;4975065;28;20197;-77
2023/10/23 08:16:53;;;;;;;34.27;17.40;;;12.80;99.90;;;;;;4975467;28;20213;-77
2023/10/23 08:19:20;;;;;;;26.03;16.17;;;12.70;99.90;;;;;;4957387;28;20240;-76
2023/10/23 08:21:48;;;;;;;28.83;16.20;;;12.70;99.90;;;;;;4974018;28;20644;-76
2023/10/23 08:24:16;;;;;;;29.63;16.03;;;12.70;99.90;;;;;;4975077;28;20204;-74
2023/10/23 08:26:44;;;;;;;32.77;16.97;;;12.80;99.90;;;;;;4973842;28;20201;-75
2023/10/23 08:29:13;;;;;;;27.73;15.87;;;12.80;99.90;;;;;;4973636;28;20697;-75
2023/10/23 08:31:43;;;;;;;29.63;16.43;;;12.70;99.90;;;;;;4973921;28;20201;-75
2023/10/23 08:34:10;;;;;;;29.37;17.13;;;12.70;99.90;;;;;;4973492;28;20217;-75
2023/10/23 08:36:38;;;;;;;28.60;16.33;;;12.80;99.90;;;;;;4974272;28;20201;-76
2023/10/23 08:39:06;;;;;;;33.00;16.43;;;12.70;99.90;;;;;;4955394;28;20232;-76
2023/10/23 08:41:35;;;;;;;32.30;18.17;;;12.80;99.90;;;;;;4973659;28;20241;-76
2023/10/23 08:44:04;;;;;;;30.37;17.17;;;12.90;99.90;;;;;;4973637;28;20197;-76
2023/10/23 08:46:33;;;;;;;30.93;16.83;;;13.00;99.90;;;;;;4974404;28;20193;-75
2023/10/23 08:49:01;;;;;;;34.17;17.70;;;13.00;99.90;;;;;;4957119;28;20221;-77
2023/10/23 08:51:31;;;;;;;28.43;16.13;;;13.10;99.90;;;;;;4975178;28;20292;-75
2023/10/23 08:54:12;;;;;;;26.03;16.10;;;13.20;99.90;;;;;;4974131;28;20204;-76
2023/10/23 08:56:42;;;;;;;28.43;16.40;;;13.30;99.90;;;;;;4974133;28;20244;-77
2023/10/23 08:59:15;;;;;;;29.93;17.07;;;13.50;99.90;;;;;;4973101;28;20292;-76
2023/10/23 09:01:45;;;;;;;29.37;15.33;;;13.50;99.90;;;;;;4972778;28;20283;-74
2023/10/23 09:04:13;;;;;;;29.47;16.37;;;13.50;99.90;;;;;;4974277;28;20217;-77
2023/10/23 09:06:42;;;;;;;30.13;16.83;;;13.50;99.90;;;;;;4973381;28;20197;-76
2023/10/23 09:09:10;;;;;;;29.30;16.73;;;13.50;99.90;;;;;;4973278;28;20193;-76
2023/10/23 09:11:45;;;;;;;35.00;16.10;;;13.40;99.90;;;;;;4973283;28;20200;-76
2023/10/23 09:14:24;;;;;;;25.00;14.70;;;13.60;99.90;;;;;;4973026;28;20205;-74
2023/10/23 09:16:53;;;;;;;20.50;13.93;;;13.60;99.90;;;;;;4972540;28;20208;-75
2023/10/23 09:19:25;;;;;;;21.67;13.93;;;13.60;99.90;;;;;;4972109;28;20253;-76
2023/10/23 09:21:56;;;;;;;25.63;12.90;;;13.70;99.90;;;;;;4973559;28;20201;-75
2023/10/23 09:24:24;;;;;;;21.07;13.03;;;13.70;99.90;;;;;;4973577;28;20645;-76
2023/10/23 09:26:52;;;;;;;23.33;12.80;;;13.50;99.90;;;;;;4972678;28;20194;-77
2023/10/23 09:29:26;;;;;;;19.40;12.47;;;13.30;99.90;;;;;;4973616;28;20610;-77
2023/10/23 09:31:55;;;;;;;20.13;12.60;;;13.40;99.90;;;;;;4972800;28;20209;-77
2023/10/23 09:34:24;;;;;;;26.37;13.57;;;13.50;99.90;;;;;;4973525;28;20735;-78
2023/10/23 09:36:52;;;;;;;27.80;13.60;;;13.60;99.90;;;;;;4955681;28;20220;-76
2023/10/23 09:39:22;;;;;;;22.40;12.97;;;13.60;99.90;;;;;;4972850;28;20217;-77
2023/10/23 09:41:50;;;;;;;20.93;12.80;;;13.60;99.90;;;;;;4972101;28;20202;-77
2023/10/23 09:44:18;;;;;;;20.80;13.20;;;13.70;99.90;;;;;;4971640;28;20652;-79
2023/10/23 09:46:58;;;;;;;37.23;15.63;;;13.60;99.90;;;;;;4957889;28;20557;-77
2023/10/23 09:49:29;;;;;;;24.83;13.90;;;13.70;99.90;;;;;;4972363;28;20201;-78
2023/10/23 09:52:00;;;;;;;22.10;13.53;;;13.60;99.90;;;;;;4974064;28;20240;-78
2023/10/23 09:54:35;;;;;;;20.87;13.63;;;13.80;99.90;;;;;;4973593;28;20284;-78
2023/10/23 09:57:05;;;;;;;27.27;14.57;;;13.80;99.90;;;;;;4973674;28;20232;-77
2023/10/23 09:59:42;;;;;;;23.00;13.80;;;13.70;99.90;;;;;;4973550;28;20276;-78
2023/10/23 10:02:13;;;;;;;20.60;13.40;;;13.70;99.90;;;;;;4971550;28;20216;-75
2023/10/23 10:04:49;;;;;;;21.10;13.63;;;13.50;99.90;;;;;;4972254;28;20276;-77
2023/10/23 10:07:31;;;;;;;26.43;14.00;;;13.60;99.90;;;;;;4973319;28;20728;-74
2023/10/23 10:10:01;;;;;;;22.97;14.07;;;13.50;99.90;;;;;;4973262;28;20221;-76
2023/10/23 10:12:41;;;;;;;22.97;13.73;;;13.50;99.90;;;;;;4973001;28;20544;-75
2023/10/23 10:15:16;;;;;;;22.43;13.07;;;13.40;99.90;;;;;;4973327;28;20264;-77
2023/10/23 10:17:49;;;;;;;21.47;13.80;;;13.40;99.90;;;;;;4953656;28;20703;-78
2023/10/23 10:20:21;;;;;;;22.07;14.10;;;13.50;99.90;;;;;;4972710;28;20225;-76
2023/10/23 10:22:53;;;;;;;20.93;13.57;;;13.40;99.90;;;;;;4973296;28;20281;-77
2023/10/23 10:25:25;;;;;;;21.77;13.77;;;13.30;99.90;;;;;;4955309;28;20653;-76
2023/10/23 10:27:57;;;;;;;19.57;13.57;;;13.30;99.90;;;;;;4972927;28;20193;-77
2023/10/23 10:30:41;;;;;;;20.40;13.87;;;13.20;99.90;;;;;;4972821;28;20208;-76
2023/10/23 10:33:29;;;;;;;21.50;13.37;;;13.20;99.90;;;;;;4956325;28;20320;-75
2023/10/23 10:36:18;;;;;;;35.60;15.27;;;13.10;99.90;;;;;;4970980;28;20296;-75
2023/10/23 10:39:10;;;;;;;19.40;13.60;;;12.90;99.90;;;;;;4971063;28;20225;-77
2023/10/23 10:41:45;;;;;;;18.13;13.77;;;13.10;99.90;;;;;;4939869;28;20203;-76
2023/10/23 10:44:16;;;;;;;21.07;13.80;;;13.00;99.90;;;;;;4955784;28;20547;-75
2023/10/23 10:46:49;;;;;;;21.23;14.20;;;13.00;99.90;;;;;;4971601;28;20181;-77
2023/10/23 10:49:22;;;;;;;26.47;14.93;;;13.00;99.90;;;;;;4973167;28;20232;-76
2023/10/23 10:52:15;;;;;;;20.87;13.90;;;13.00;99.90;;;;;;4972552;28;20265;-74
2023/10/23 10:54:43;;;;;;;25.03;15.07;;;13.00;99.90;;;;;;4955404;28;20197;-74
2023/10/23 10:57:16;;;;;;;22.43;14.80;;;13.00;99.90;;;;;;4955219;28;20206;-75
2023/10/23 10:59:44;;;;;;;24.23;14.43;;;13.10;99.90;;;;;;4972409;28;20296;-76
2023/10/23 11:02:13;;;;;;;20.67;14.70;;;13.10;99.90;;;;;;4972988;28;20223;-77
2023/10/23 11:04:40;;;;;;;20.77;14.20;;;13.30;99.90;;;;;;4954862;28;20231;-73
2023/10/23 11:07:13;;;;;;;19.57;13.90;;;13.30;99.90;;;;;;4965457;28;20711;-75
2023/10/23 11:09:44;;;;;;;19.23;12.93;;;13.30;99.90;;;;;;4972200;28;20388;-75
2023/10/23 11:12:11;;;;;;;22.77;13.93;;;13.30;99.90;;;;;;4972313;28;20546;-76
2023/10/23 11:14:42;;;;;;;21.50;13.23;;;13.20;99.90;;;;;;4956164;28;20201;-76
2023/10/23 11:17:09;;;;;;;25.97;13.73;;;13.30;99.90;;;;;;4971037;28;20287;-77
2023/10/23 11:19:41;;;;;;;24.60;13.93;;;13.20;99.90;;;;;;4970576;28;20661;-78
2023/10/23 11:22:21;;;;;;;18.30;13.07;;;13.30;99.90;;;;;;4955590;28;20204;-77
2023/10/23 11:24:50;;;;;;;27.67;14.03;;;13.50;99.90;;;;;;4955783;28;20739;-77
2023/10/23 11:27:19;;;;;;;22.07;13.07;;;13.40;99.90;;;;;;4955673;28;20204;-78
2023/10/23 11:29:57;;;;;;;20.50;12.30;;;13.20;99.90;;;;;;4893164;29;20208;-78
2023/10/23 11:32:31;;;;;;;17.60;12.80;;;13.30;99.90;;;;;;4893450;29;20224;-78
2023/10/23 11:35:05;;;;;;;21.90;12.60;;;13.20;99.90;;;;;;4878437;29;20287;-78
2023/10/23 11:37:43;;;;;;;21.47;12.00;;;13.10;99.90;;;;;;4893217;29;20544;-77
2023/10/23 11:40:24;;;;;;;16.50;11.93;;;13.20;99.90;;;;;;4877544;29;20610;-78
2023/10/23 11:43:02;;;;;;;17.27;11.20;;;13.20;99.90;;;;;;4865365;29;20556;-78
2023/10/23 11:45:44;;;;;;;17.93;11.93;;;13.30;99.90;;;;;;4896868;29;20252;-78
2023/10/23 11:48:18;;;;;;;18.07;11.33;;;13.50;99.90;;;;;;4917883;28;20256;-77
2023/10/23 11:50:49;;;;;;;18.63;10.50;;;13.50;99.90;;;;;;4974330;28;20256;-76
2023/10/23 11:53:23;;;;;;;17.97;10.63;;;13.60;99.90;;;;;;4976355;28;20256;-76
2023/10/23 11:55:50;;;;;;;19.20;10.53;;;13.50;99.90;;;;;;4973014;28;20283;-77
2023/10/23 11:58:39;;;;;;;15.73;9.80;;;13.60;99.90;;;;;;4958723;28;20193;-76
2023/10/23 12:01:23;;;;;;;15.70;9.57;;;13.60;99.90;;;;;;4955086;28;20563;-75
2023/10/23 12:03:51;;;;;;;15.00;9.43;;;13.70;99.90;;;;;;4975523;28;20213;-78
2023/10/23 12:06:21;;;;;;;15.03;8.80;;;13.70;99.90;;;;;;4975797;28;20190;-76
2023/10/23 12:08:54;;;;;;;14.33;8.90;;;13.80;99.90;;;;;;4974339;28;20224;-76
2023/10/23 12:11:40;;;;;;;13.77;8.00;;;13.80;99.90;;;;;;4958003;28;20559;-78
2023/10/23 12:14:10;;;;;;;15.40;7.90;;;13.90;99.90;;;;;;4957978;28;20198;-76
2023/10/23 12:16:43;;;;;;;11.57;7.63;;;13.80;99.90;;;;;;4973740;28;20206;-78
2023/10/23 12:19:19;;;;;;;11.03;7.13;;;13.80;99.90;;;;;;4974446;28;20276;-76
2023/10/23 12:21:56;;;;;;;13.00;7.67;;;13.80;99.90;;;;;;4975351;28;20205;-78
2023/10/23 12:24:30;;;;;;;23.67;8.23;;;13.70;99.90;;;;;;4958275;28;20182;-76
2023/10/23 12:26:58;;;;;;;10.50;7.03;;;13.70;99.90;;;;;;4957543;28;20724;-77
2023/10/23 12:29:31;;;;;;;12.17;7.07;;;13.80;99.90;;;;;;4974377;28;20680;-78
2023/10/23 12:32:07;;;;;;;11.20;7.10;;;14.00;99.90;;;;;;4973040;28;20645;-77
2023/10/23 12:35:07;;;;;;;13.60;7.50;;;14.10;99.90;;;;;;4957142;28;20306;-77
2023/10/23 12:37:41;;;;;;;15.30;7.03;;;14.30;99.90;;;;;;4914744;29;20212;-77
2023/10/23 12:40:16;;;;;;;14.23;6.83;;;14.20;99.90;;;;;;4914733;29;20701;-76
2023/10/23 12:42:44;;;;;;;12.63;7.00;;;14.20;99.90;;;;;;4915054;29;20224;-74
2023/10/23 12:45:18;;;;;;;12.80;7.00;;;14.30;99.90;;;;;;4914093;29;20275;-76
2023/10/23 12:47:46;;;;;;;10.57;5.77;;;14.10;99.90;;;;;;4898772;29;20565;-79
2023/10/23 12:50:14;;;;;;;10.97;6.10;;;14.20;99.90;;;;;;4914389;29;20629;-77
2023/10/23 12:52:52;;;;;;;16.73;6.73;;;14.10;99.90;;;;;;4914333;29;20427;-76
2023/10/23 12:55:28;;;;;;;9.70;5.60;;;14.10;99.90;;;;;;4933436;28;20217;-77